Aviation Digital Data Service (ADDS)

Output produced by METARs form (1902 UTC 22 August 2017)
found at http://aviationweather.gov/adds/metars/
 
KRIC 221744Z 2218/2318 21012G20KT P6SM SCT050 
     FM222300 19008KT P6SM SKC 
     FM231100 24007KT P6SM BKN120